Time;durP1;ratioP1;P1;durP2;ratioP2;P2;SDS_P1;SDS_P2;PMS_P1;PMS_P2;Temp;Humidity;BMP_temperature;BMP_pressure;BME280_temperature;BME280_humidity;BME280_pressure;Samples;Min_cycle;Max_cycle;Signal;HPM_P1;HPM_P2
2022/03/08 00:01:53;;;;;;;36.60;18.75;;;-2.00;99.90;;;;;;21134789;28;20031;-55
2022/03/08 00:11:55;;;;;;;37.33;18.30;;;-2.00;99.90;;;;;;21104917;28;20056;-54
2022/03/08 00:21:58;;;;;;;39.17;18.27;;;-2.10;99.90;;;;;;21131786;28;20328;-54
2022/03/08 00:32:01;;;;;;;35.05;19.13;;;-2.20;99.90;;;;;;21150914;28;20062;-54
2022/03/08 00:42:04;;;;;;;39.72;18.98;;;-2.30;99.90;;;;;;21132932;28;20065;-54
2022/03/08 00:52:07;;;;;;;43.53;20.70;;;-2.30;99.90;;;;;;21132464;28;20032;-56
2022/03/08 01:02:10;;;;;;;38.45;18.77;;;-2.20;99.90;;;;;;21131656;28;20032;-51
2022/03/08 01:12:12;;;;;;;43.33;19.70;;;-2.10;99.90;;;;;;21132946;28;20039;-54
2022/03/08 01:22:15;;;;;;;37.83;19.25;;;-2.10;99.90;;;;;;21166460;28;20092;-55
2022/03/08 01:32:18;;;;;;;36.45;18.77;;;-2.20;99.90;;;;;;21147244;28;20504;-56
2022/03/08 01:42:24;;;;;;;40.72;18.85;;;-2.30;99.90;;;;;;21146388;28;20118;-54
2022/03/08 01:52:28;;;;;;;36.15;18.20;;;-2.40;99.90;;;;;;21145451;28;20491;-56
2022/03/08 02:02:30;;;;;;;34.03;17.60;;;-2.40;99.90;;;;;;21145237;28;20394;-52
2022/03/08 02:12:32;;;;;;;35.80;18.45;;;-2.40;99.90;;;;;;21109111;28;20407;-54
2022/03/08 02:22:35;;;;;;;35.33;18.20;;;-2.40;99.90;;;;;;21058628;28;20070;-56
2022/03/08 02:32:38;;;;;;;32.33;16.52;;;-2.30;99.90;;;;;;21058300;28;20487;-56
2022/03/08 02:42:42;;;;;;;33.78;17.45;;;-2.50;99.90;;;;;;21058398;28;20412;-58
2022/03/08 02:52:47;;;;;;;32.90;16.77;;;-2.50;99.90;;;;;;21056605;28;20487;-57
2022/03/08 03:02:51;;;;;;;35.67;17.98;;;-2.60;99.90;;;;;;21055735;28;20093;-56
2022/03/08 03:12:56;;;;;;;32.95;16.98;;;-2.80;99.90;;;;;;21055826;28;20052;-56
2022/03/08 03:22:58;;;;;;;34.85;17.92;;;-2.90;99.90;;;;;;21054010;28;20089;-54
2022/03/08 03:33:02;;;;;;;32.42;16.55;;;-3.10;99.90;;;;;;21053248;28;20058;-54
2022/03/08 03:43:05;;;;;;;36.88;16.83;;;-3.10;99.90;;;;;;21051891;28;20545;-53
2022/03/08 03:53:08;;;;;;;33.42;16.73;;;-3.30;99.90;;;;;;21051597;28;20036;-54
2022/03/08 04:03:10;;;;;;;30.10;15.40;;;-3.40;99.90;;;;;;21051166;28;20086;-52
2022/03/08 04:13:13;;;;;;;30.52;15.48;;;-3.40;99.90;;;;;;21090910;28;20043;-52
2022/03/08 04:23:15;;;;;;;33.15;15.13;;;-3.40;99.90;;;;;;21134159;28;20470;-56
2022/03/08 04:33:17;;;;;;;24.33;12.50;;;-3.40;99.90;;;;;;21134396;28;20035;-57
2022/03/08 04:43:20;;;;;;;24.08;11.38;;;-3.40;99.90;;;;;;21133186;28;20423;-53
2022/03/08 04:53:23;;;;;;;24.85;11.52;;;-3.50;99.90;;;;;;21131978;28;20043;-55
2022/03/08 05:03:25;;;;;;;24.58;11.60;;;-3.50;99.90;;;;;;21131194;28;20084;-53
2022/03/08 05:13:30;;;;;;;22.10;11.20;;;-3.60;99.90;;;;;;21130623;28;20052;-54
2022/03/08 05:23:33;;;;;;;20.83;9.10;;;-3.60;99.90;;;;;;21130548;28;20478;-56
2022/03/08 05:33:35;;;;;;;20.15;9.05;;;-3.70;99.90;;;;;;21130238;28;20058;-57
2022/03/08 05:43:39;;;;;;;15.60;8.48;;;-3.70;99.90;;;;;;21130684;28;20031;-55
2022/03/08 05:53:41;;;;;;;19.38;8.82;;;-3.70;99.90;;;;;;21129817;28;20435;-56
2022/03/08 06:03:44;;;;;;;16.98;8.40;;;-3.70;99.90;;;;;;21140264;28;20043;-56
2022/03/08 06:13:46;;;;;;;16.52;8.32;;;-3.70;99.90;;;;;;21144691;28;20055;-55
2022/03/08 06:23:49;;;;;;;20.08;9.20;;;-3.70;99.90;;;;;;21143206;28;20551;-56
2022/03/08 06:33:51;;;;;;;17.95;8.55;;;-3.70;99.90;;;;;;21142217;28;20478;-57
2022/03/08 06:43:54;;;;;;;15.82;8.63;;;-3.60;99.90;;;;;;21141726;28;20474;-56
2022/03/08 06:53:56;;;;;;;14.88;8.00;;;-3.40;99.90;;;;;;21141166;28;20061;-57
2022/03/08 07:04:00;;;;;;;18.38;8.27;;;-3.40;99.90;;;;;;21139929;28;20031;-56
2022/03/08 07:14:03;;;;;;;15.68;7.90;;;-3.30;99.90;;;;;;21139212;28;20056;-56
2022/03/08 07:24:07;;;;;;;21.38;8.02;;;-3.20;99.90;;;;;;21122695;28;20085;-55
2022/03/08 07:34:09;;;;;;;16.13;7.88;;;-2.90;99.90;;;;;;21137770;28;20100;-55
2022/03/08 07:44:12;;;;;;;14.43;7.35;;;-2.60;99.90;;;;;;21137004;28;20040;-58
2022/03/08 07:54:16;;;;;;;18.52;7.70;;;-2.30;99.90;;;;;;21136180;28;20065;-56
2022/03/08 08:04:19;;;;;;;11.75;7.22;;;-2.00;99.90;;;;;;21150535;28;20039;-57
2022/03/08 08:14:22;;;;;;;13.18;7.00;;;-1.60;99.90;;;;;;21135301;28;20119;-57
2022/03/08 08:24:25;;;;;;;14.30;7.28;;;-1.50;99.90;;;;;;21133867;28;20101;-57
2022/03/08 08:34:27;;;;;;;13.93;6.93;;;-1.40;99.90;;;;;;21132971;28;20035;-53
2022/03/08 08:44:30;;;;;;;13.13;7.03;;;-1.20;99.90;;;;;;21133347;28;20039;-55
2022/03/08 08:54:33;;;;;;;13.48;6.68;;;-1.10;99.90;;;;;;21132314;28;20040;-56
2022/03/08 09:04:36;;;;;;;12.20;6.60;;;-0.90;99.90;;;;;;21114913;28;20309;-57
2022/03/08 09:14:38;;;;;;;12.50;6.88;;;-0.70;99.90;;;;;;21131820;28;20565;-56
2022/03/08 09:24:40;;;;;;;12.93;6.65;;;-0.40;99.90;;;;;;21130639;28;20036;-54
2022/03/08 09:34:43;;;;;;;12.10;6.43;;;-0.10;99.90;;;;;;21135935;28;20039;-56
2022/03/08 09:44:48;;;;;;;12.02;6.18;;;0.00;99.90;;;;;;21147550;28;20035;-56
2022/03/08 09:54:51;;;;;;;14.07;6.00;;;0.20;99.80;;;;;;21109877;28;20040;-58
2022/03/08 10:05:12;;;;;;;10.32;5.85;;;0.50;99.20;;;;;;21060739;28;20044;-55
2022/03/08 10:15:19;;;;;;;8.30;4.57;;;0.60;98.60;;;;;;21059247;28;20044;-52
2022/03/08 10:25:25;;;;;;;11.77;5.88;;;0.90;97.40;;;;;;21058847;28;20090;-57
2022/03/08 10:35:31;;;;;;;11.25;6.13;;;1.10;97.50;;;;;;21059285;28;20277;-55
2022/03/08 10:45:40;;;;;;;11.15;5.90;;;1.30;96.50;;;;;;21057033;28;20094;-57
2022/03/08 10:55:47;;;;;;;11.23;6.38;;;2.00;96.10;;;;;;21056282;28;20507;-55
2022/03/08 11:05:55;;;;;;;11.27;6.40;;;2.60;95.00;;;;;;21055878;28;20028;-54
2022/03/08 11:15:57;;;;;;;13.18;6.13;;;2.80;94.50;;;;;;21055002;28;20113;-58
2022/03/08 11:26:01;;;;;;;9.10;5.78;;;4.20;94.40;;;;;;21054109;28;20036;-58
2022/03/08 11:36:12;;;;;;;13.50;6.40;;;4.30;91.90;;;;;;21053100;28;20450;-58
2022/03/08 11:46:18;;;;;;;13.73;7.10;;;4.80;92.50;;;;;;21036068;28;20036;-56
2022/03/08 11:56:21;;;;;;;11.20;6.32;;;4.30;89.60;;;;;;21053003;28;20036;-57
2022/03/08 12:06:38;;;;;;;16.15;6.25;;;4.30;91.10;;;;;;21051461;28;20367;-57
2022/03/08 12:16:44;;;;;;;10.43;6.47;;;4.90;89.00;;;;;;21119591;28;20044;-58
2022/03/08 12:26:57;;;;;;;13.25;6.95;;;5.60;89.50;;;;;;21134028;28;20076;-58
2022/03/08 12:37:14;;;;;;;13.57;7.53;;;5.00;88.30;;;;;;21133042;28;20126;-59
2022/03/08 12:47:18;;;;;;;12.05;6.20;;;4.70;87.70;;;;;;21133119;28;20096;-57
2022/03/08 12:57:23;;;;;;;12.27;6.68;;;4.20;90.80;;;;;;21132563;28;20035;-60
2022/03/08 13:07:25;;;;;;;14.07;6.00;;;4.50;85.90;;;;;;21133049;28;20089;-59
2022/03/08 13:17:29;;;;;;;10.32;5.72;;;4.30;89.40;;;;;;21148392;28;20552;-59
2022/03/08 13:27:53;;;;;;;9.75;5.60;;;4.60;90.10;;;;;;21148292;28;20035;-60
2022/03/08 13:37:56;;;;;;;10.45;5.97;;;4.90;87.30;;;;;;21147181;28;20479;-59
2022/03/08 13:48:03;;;;;;;10.70;6.32;;;4.60;87.00;;;;;;21148438;28;20035;-60
2022/03/08 13:58:14;;;;;;;13.93;6.43;;;4.40;87.60;;;;;;21145645;28;20104;-59
2022/03/08 14:08:34;;;;;;;10.98;6.32;;;3.90;88.10;;;;;;21144726;28;20360;-58
2022/03/08 14:18:57;;;;;;;11.70;6.73;;;3.60;87.90;;;;;;21076155;28;20101;-53
2022/03/08 14:29:09;;;;;;;10.82;6.18;;;2.90;88.00;;;;;;21041980;28;20039;-57
2022/03/08 14:39:23;;;;;;;17.70;7.78;;;2.10;90.30;;;;;;21058490;28;20035;-57
2022/03/08 14:49:27;;;;;;;13.43;6.70;;;2.10;91.60;;;;;;21057136;28;20032;-57
2022/03/08 14:59:34;;;;;;;12.60;6.47;;;1.90;91.40;;;;;;21074758;28;20061;-57
2022/03/08 15:09:38;;;;;;;11.55;6.30;;;1.60;92.00;;;;;;21082445;28;20395;-55
2022/03/08 15:19:40;;;;;;;12.10;6.72;;;1.20;92.20;;;;;;21122565;28;20051;-54
2022/03/08 15:29:43;;;;;;;16.27;7.32;;;0.90;93.10;;;;;;21137205;28;20031;-56
2022/03/08 15:39:45;;;;;;;12.98;7.03;;;0.70;93.60;;;;;;21137248;28;20069;-56
2022/03/08 15:49:49;;;;;;;13.82;7.00;;;0.50;93.70;;;;;;21136155;28;20452;-52
2022/03/08 15:59:53;;;;;;;12.85;7.10;;;0.30;94.50;;;;;;21135406;28;20035;-56
2022/03/08 16:09:55;;;;;;;13.88;7.07;;;-0.40;95.00;;;;;;21134815;28;20340;-55
2022/03/08 16:19:58;;;;;;;14.90;7.40;;;-1.00;96.10;;;;;;21151935;28;20047;-56
2022/03/08 16:30:03;;;;;;;16.83;8.13;;;-1.50;96.90;;;;;;21133683;28;20027;-54
2022/03/08 16:40:08;;;;;;;14.32;7.20;;;-1.80;97.90;;;;;;21132745;28;20498;-55
2022/03/08 16:50:14;;;;;;;17.90;7.80;;;-2.30;98.60;;;;;;21132352;28;20096;-55
2022/03/08 17:00:17;;;;;;;18.38;9.52;;;-2.80;99.60;;;;;;21131772;28;20085;-54
2022/03/08 17:10:20;;;;;;;18.05;8.30;;;-3.10;99.90;;;;;;21131207;28;20097;-55
2022/03/08 17:20:22;;;;;;;20.42;8.27;;;-3.40;99.90;;;;;;21061743;28;20052;-56
2022/03/08 17:30:25;;;;;;;21.40;8.18;;;-3.60;99.90;;;;;;21046223;28;20040;-52
2022/03/08 17:40:27;;;;;;;16.48;7.70;;;-3.70;99.90;;;;;;21045980;28;20040;-66
2022/03/08 17:50:30;;;;;;;17.98;8.45;;;-3.70;99.90;;;;;;21046601;28;20036;-62
2022/03/08 18:00:34;;;;;;;19.48;8.95;;;-3.80;99.90;;;;;;21057153;28;20040;-58
2022/03/08 18:10:37;;;;;;;20.60;8.95;;;-4.00;99.90;;;;;;21059730;28;20032;-56
2022/03/08 18:20:40;;;;;;;22.30;9.10;;;-4.00;99.90;;;;;;21017008;28;20048;-56
2022/03/08 18:30:42;;;;;;;18.45;8.50;;;-4.20;99.90;;;;;;21058849;28;20074;-56
2022/03/08 18:40:45;;;;;;;20.20;8.90;;;-4.40;99.90;;;;;;21058170;28;20032;-56
2022/03/08 18:50:48;;;;;;;18.02;8.57;;;-4.50;99.90;;;;;;21057301;28;20032;-54
2022/03/08 19:00:51;;;;;;;18.38;8.88;;;-4.50;99.90;;;;;;21039771;28;20384;-54
2022/03/08 19:10:55;;;;;;;18.88;8.05;;;-4.50;99.90;;;;;;21054095;28;20397;-57
2022/03/08 19:20:59;;;;;;;17.92;8.02;;;-4.60;99.90;;;;;;21112120;28;20093;-55
2022/03/08 19:31:04;;;;;;;19.20;8.50;;;-4.70;99.90;;;;;;21138609;28;20065;-57
2022/03/08 19:41:08;;;;;;;20.10;9.57;;;-4.90;99.90;;;;;;21120526;28;20085;-57
2022/03/08 19:51:10;;;;;;;19.17;9.25;;;-4.90;99.90;;;;;;21093152;28;20031;-65
2022/03/08 20:01:13;;;;;;;20.13;9.20;;;-4.80;99.90;;;;;;21052009;28;20033;-60
2022/03/08 20:11:18;;;;;;;21.52;9.98;;;-4.70;99.90;;;;;;21051589;28;20040;-60
2022/03/08 20:21:21;;;;;;;21.40;9.32;;;-4.70;99.90;;;;;;21127881;28;20411;-57
2022/03/08 20:31:24;;;;;;;19.25;9.10;;;-4.60;99.90;;;;;;21133975;28;20031;-59
2022/03/08 20:41:27;;;;;;;20.27;9.60;;;-4.70;99.90;;;;;;21133483;28;20429;-61
2022/03/08 20:51:30;;;;;;;17.77;8.20;;;-4.80;99.90;;;;;;21132858;28;20032;-63
2022/03/08 21:01:32;;;;;;;18.17;7.88;;;-4.50;99.90;;;;;;21132039;28;20039;-65
2022/03/08 21:11:36;;;;;;;19.90;8.40;;;-4.40;99.90;;;;;;21130841;28;20360;-64
2022/03/08 21:21:39;;;;;;;16.80;8.07;;;-4.40;99.90;;;;;;21131116;28;20100;-59
2022/03/08 21:31:43;;;;;;;21.73;9.32;;;-4.20;99.90;;;;;;21059913;28;20415;-55
2022/03/08 21:41:45;;;;;;;19.80;8.98;;;-4.30;99.90;;;;;;21146025;28;20036;-57
2022/03/08 21:51:48;;;;;;;17.10;8.32;;;-4.40;99.90;;;;;;21145727;28;20039;-56
2022/03/08 22:01:51;;;;;;;21.95;9.02;;;-4.30;99.90;;;;;;21143872;28;20061;-52
2022/03/08 22:11:56;;;;;;;28.20;10.15;;;-4.10;99.90;;;;;;21143829;28;20458;-55
2022/03/08 22:21:58;;;;;;;22.23;10.48;;;-4.20;99.90;;;;;;21013792;28;20048;-62
2022/03/08 22:32:01;;;;;;;24.75;10.43;;;-4.00;99.90;;;;;;20974627;28;20036;-63
2022/03/08 22:42:04;;;;;;;21.45;9.75;;;-4.00;99.90;;;;;;21045201;28;20397;-63
2022/03/08 22:52:07;;;;;;;22.00;10.90;;;-4.00;99.90;;;;;;21056694;28;20396;-63
2022/03/08 23:02:10;;;;;;;24.95;11.82;;;-4.20;99.90;;;;;;21055616;28;20070;-63
2022/03/08 23:12:13;;;;;;;23.42;9.88;;;-4.10;99.90;;;;;;21055542;28;20120;-63
2022/03/08 23:22:20;;;;;;;25.70;11.38;;;-4.00;99.90;;;;;;21054997;28;20449;-61
2022/03/08 23:32:24;;;;;;;24.40;10.30;;;-3.90;99.90;;;;;;21053643;28;20371;-60
2022/03/08 23:42:27;;;;;;;24.20;10.77;;;-3.80;99.90;;;;;;21052955;28;20044;-62
2022/03/08 23:52:30;;;;;;;22.38;10.27;;;-3.80;99.90;;;;;;21034558;28;20063;-63
